sensor_id;sensor_type;location;lat;lon;timestamp;P1;durP1;ratioP1;P2;durP2;ratioP2
15716;SDS011;7960;50.908;4.204;2023-06-26T00:02:15;5.63;;;5.10;;
15716;SDS011;7960;50.908;4.204;2023-06-26T00:04:42;5.93;;;5.33;;
15716;SDS011;7960;50.908;4.204;2023-06-26T00:07:09;9.60;;;5.40;;
15716;SDS011;7960;50.908;4.204;2023-06-26T00:09:36;6.07;;;5.40;;
15716;SDS011;7960;50.908;4.204;2023-06-26T00:12:03;6.63;;;5.17;;
15716;SDS011;7960;50.908;4.204;2023-06-26T00:14:32;8.90;;;5.23;;
15716;SDS011;7960;50.908;4.204;2023-06-26T00:16:59;6.17;;;4.90;;
15716;SDS011;7960;50.908;4.204;2023-06-26T00:19:26;6.60;;;4.80;;
15716;SDS011;7960;50.908;4.204;2023-06-26T00:21:52;7.10;;;5.10;;
15716;SDS011;7960;50.908;4.204;2023-06-26T00:24:19;7.63;;;5.00;;
15716;SDS011;7960;50.908;4.204;2023-06-26T00:26:46;6.03;;;4.70;;
15716;SDS011;7960;50.908;4.204;2023-06-26T00:29:14;6.30;;;4.53;;
15716;SDS011;7960;50.908;4.204;2023-06-26T00:31:43;6.37;;;4.57;;
15716;SDS011;7960;50.908;4.204;2023-06-26T00:34:09;7.03;;;4.50;;
15716;SDS011;7960;50.908;4.204;2023-06-26T00:36:37;7.27;;;4.20;;
15716;SDS011;7960;50.908;4.204;2023-06-26T00:39:03;4.33;;;3.93;;
15716;SDS011;7960;50.908;4.204;2023-06-26T00:41:30;5.93;;;4.30;;
15716;SDS011;7960;50.908;4.204;2023-06-26T00:43:57;5.07;;;4.10;;
15716;SDS011;7960;50.908;4.204;2023-06-26T00:46:24;6.40;;;4.13;;
15716;SDS011;7960;50.908;4.204;2023-06-26T00:48:52;5.87;;;4.57;;
15716;SDS011;7960;50.908;4.204;2023-06-26T00:51:21;7.60;;;4.40;;
15716;SDS011;7960;50.908;4.204;2023-06-26T00:53:48;5.00;;;4.43;;
15716;SDS011;7960;50.908;4.204;2023-06-26T00:56:15;6.77;;;4.60;;
15716;SDS011;7960;50.908;4.204;2023-06-26T00:58:44;7.33;;;4.07;;
15716;SDS011;7960;50.908;4.204;2023-06-26T01:01:11;4.50;;;4.00;;
15716;SDS011;7960;50.908;4.204;2023-06-26T01:03:42;7.37;;;4.37;;
15716;SDS011;7960;50.908;4.204;2023-06-26T01:06:11;6.27;;;4.07;;
15716;SDS011;7960;50.908;4.204;2023-06-26T01:08:41;10.43;;;4.30;;
15716;SDS011;7960;50.908;4.204;2023-06-26T01:11:08;6.33;;;4.43;;
15716;SDS011;7960;50.908;4.204;2023-06-26T01:13:36;7.87;;;4.27;;
15716;SDS011;7960;50.908;4.204;2023-06-26T01:16:04;9.00;;;4.30;;
15716;SDS011;7960;50.908;4.204;2023-06-26T01:18:32;5.33;;;3.87;;
15716;SDS011;7960;50.908;4.204;2023-06-26T01:20:59;8.57;;;3.90;;
15716;SDS011;7960;50.908;4.204;2023-06-26T01:23:31;5.37;;;4.13;;
15716;SDS011;7960;50.908;4.204;2023-06-26T01:26:14;5.67;;;3.77;;
15716;SDS011;7960;50.908;4.204;2023-06-26T01:28:44;6.63;;;4.40;;
15716;SDS011;7960;50.908;4.204;2023-06-26T01:31:12;4.43;;;3.87;;
15716;SDS011;7960;50.908;4.204;2023-06-26T01:33:40;6.37;;;3.87;;
15716;SDS011;7960;50.908;4.204;2023-06-26T01:36:07;5.50;;;4.00;;
15716;SDS011;7960;50.908;4.204;2023-06-26T01:38:35;5.27;;;3.73;;
15716;SDS011;7960;50.908;4.204;2023-06-26T01:41:02;6.00;;;3.80;;
15716;SDS011;7960;50.908;4.204;2023-06-26T01:43:34;4.90;;;3.60;;
15716;SDS011;7960;50.908;4.204;2023-06-26T01:46:09;7.40;;;4.20;;
15716;SDS011;7960;50.908;4.204;2023-06-26T01:48:49;7.37;;;4.03;;
15716;SDS011;7960;50.908;4.204;2023-06-26T01:51:22;7.90;;;4.40;;
15716;SDS011;7960;50.908;4.204;2023-06-26T01:53:55;4.90;;;3.93;;
15716;SDS011;7960;50.908;4.204;2023-06-26T01:56:23;8.13;;;4.00;;
15716;SDS011;7960;50.908;4.204;2023-06-26T01:58:53;7.20;;;3.97;;
15716;SDS011;7960;50.908;4.204;2023-06-26T02:01:21;8.20;;;4.00;;
15716;SDS011;7960;50.908;4.204;2023-06-26T02:03:48;5.23;;;4.13;;
15716;SDS011;7960;50.908;4.204;2023-06-26T02:06:14;6.10;;;4.10;;
15716;SDS011;7960;50.908;4.204;2023-06-26T02:08:41;6.97;;;3.90;;
15716;SDS011;7960;50.908;4.204;2023-06-26T02:11:08;8.83;;;4.30;;
15716;SDS011;7960;50.908;4.204;2023-06-26T02:13:35;5.37;;;4.10;;
15716;SDS011;7960;50.908;4.204;2023-06-26T02:16:03;7.00;;;4.03;;
15716;SDS011;7960;50.908;4.204;2023-06-26T02:18:30;10.17;;;4.40;;
15716;SDS011;7960;50.908;4.204;2023-06-26T02:20:57;5.47;;;3.80;;
15716;SDS011;7960;50.908;4.204;2023-06-26T02:23:24;8.37;;;4.20;;
15716;SDS011;7960;50.908;4.204;2023-06-26T02:25:51;7.27;;;4.60;;
15716;SDS011;7960;50.908;4.204;2023-06-26T02:28:18;7.73;;;4.40;;
15716;SDS011;7960;50.908;4.204;2023-06-26T02:30:45;6.23;;;4.20;;
15716;SDS011;7960;50.908;4.204;2023-06-26T02:33:15;11.20;;;4.70;;
15716;SDS011;7960;50.908;4.204;2023-06-26T02:35:42;7.83;;;4.43;;
15716;SDS011;7960;50.908;4.204;2023-06-26T02:38:09;7.90;;;4.80;;
15716;SDS011;7960;50.908;4.204;2023-06-26T02:40:38;10.87;;;4.73;;
15716;SDS011;7960;50.908;4.204;2023-06-26T02:43:07;12.77;;;5.07;;
15716;SDS011;7960;50.908;4.204;2023-06-26T02:45:33;7.60;;;4.47;;
15716;SDS011;7960;50.908;4.204;2023-06-26T02:48:00;9.30;;;4.47;;
15716;SDS011;7960;50.908;4.204;2023-06-26T02:50:29;8.27;;;4.63;;
15716;SDS011;7960;50.908;4.204;2023-06-26T02:52:56;7.30;;;4.90;;
15716;SDS011;7960;50.908;4.204;2023-06-26T02:55:23;7.57;;;4.73;;
15716;SDS011;7960;50.908;4.204;2023-06-26T02:57:50;8.50;;;5.30;;
15716;SDS011;7960;50.908;4.204;2023-06-26T03:00:17;7.93;;;4.67;;
15716;SDS011;7960;50.908;4.204;2023-06-26T03:02:44;9.87;;;5.00;;
15716;SDS011;7960;50.908;4.204;2023-06-26T03:05:11;11.47;;;5.63;;
15716;SDS011;7960;50.908;4.204;2023-06-26T03:07:40;10.93;;;5.67;;
15716;SDS011;7960;50.908;4.204;2023-06-26T03:10:07;9.73;;;5.03;;
15716;SDS011;7960;50.908;4.204;2023-06-26T03:12:34;7.53;;;5.10;;
15716;SDS011;7960;50.908;4.204;2023-06-26T03:15:01;10.30;;;5.30;;
15716;SDS011;7960;50.908;4.204;2023-06-26T03:17:28;9.30;;;5.17;;
15716;SDS011;7960;50.908;4.204;2023-06-26T03:19:56;11.67;;;5.87;;
15716;SDS011;7960;50.908;4.204;2023-06-26T03:22:23;11.03;;;5.20;;
15716;SDS011;7960;50.908;4.204;2023-06-26T03:24:51;14.93;;;5.40;;
15716;SDS011;7960;50.908;4.204;2023-06-26T03:27:18;17.00;;;5.37;;
15716;SDS011;7960;50.908;4.204;2023-06-26T03:29:45;10.93;;;5.30;;
15716;SDS011;7960;50.908;4.204;2023-06-26T03:32:12;7.83;;;5.13;;
15716;SDS011;7960;50.908;4.204;2023-06-26T03:34:39;8.20;;;4.70;;
15716;SDS011;7960;50.908;4.204;2023-06-26T03:37:06;9.93;;;5.90;;
15716;SDS011;7960;50.908;4.204;2023-06-26T03:39:33;14.50;;;5.77;;
15716;SDS011;7960;50.908;4.204;2023-06-26T03:42:01;15.00;;;5.60;;
15716;SDS011;7960;50.908;4.204;2023-06-26T03:44:28;14.20;;;5.20;;
15716;SDS011;7960;50.908;4.204;2023-06-26T03:46:55;12.20;;;5.70;;
15716;SDS011;7960;50.908;4.204;2023-06-26T03:49:22;9.53;;;4.97;;
15716;SDS011;7960;50.908;4.204;2023-06-26T03:51:48;11.73;;;5.17;;
15716;SDS011;7960;50.908;4.204;2023-06-26T03:54:15;9.07;;;4.77;;
15716;SDS011;7960;50.908;4.204;2023-06-26T03:56:42;11.20;;;5.20;;
15716;SDS011;7960;50.908;4.204;2023-06-26T03:59:10;11.80;;;5.43;;
15716;SDS011;7960;50.908;4.204;2023-06-26T04:01:37;15.43;;;5.90;;
15716;SDS011;7960;50.908;4.204;2023-06-26T04:04:06;11.23;;;5.33;;
15716;SDS011;7960;50.908;4.204;2023-06-26T04:06:32;13.13;;;5.80;;
15716;SDS011;7960;50.908;4.204;2023-06-26T04:08:59;14.00;;;5.47;;
15716;SDS011;7960;50.908;4.204;2023-06-26T04:11:27;12.50;;;5.17;;
15716;SDS011;7960;50.908;4.204;2023-06-26T04:13:55;13.57;;;5.40;;
15716;SDS011;7960;50.908;4.204;2023-06-26T04:16:24;13.53;;;5.43;;
15716;SDS011;7960;50.908;4.204;2023-06-26T04:18:51;12.63;;;4.80;;
15716;SDS011;7960;50.908;4.204;2023-06-26T04:21:20;11.50;;;5.47;;
15716;SDS011;7960;50.908;4.204;2023-06-26T04:23:51;10.87;;;4.60;;
15716;SDS011;7960;50.908;4.204;2023-06-26T04:26:18;12.07;;;5.23;;
15716;SDS011;7960;50.908;4.204;2023-06-26T04:28:45;12.90;;;5.63;;
15716;SDS011;7960;50.908;4.204;2023-06-26T04:31:11;11.50;;;4.67;;
15716;SDS011;7960;50.908;4.204;2023-06-26T04:33:40;13.23;;;5.30;;
15716;SDS011;7960;50.908;4.204;2023-06-26T04:36:06;13.07;;;5.00;;
15716;SDS011;7960;50.908;4.204;2023-06-26T04:38:33;12.07;;;5.30;;
15716;SDS011;7960;50.908;4.204;2023-06-26T04:41:00;11.77;;;5.10;;
15716;SDS011;7960;50.908;4.204;2023-06-26T04:43:28;12.10;;;5.20;;
15716;SDS011;7960;50.908;4.204;2023-06-26T04:45:54;13.20;;;4.70;;
15716;SDS011;7960;50.908;4.204;2023-06-26T04:48:22;14.37;;;4.90;;
15716;SDS011;7960;50.908;4.204;2023-06-26T04:50:50;12.97;;;4.70;;
15716;SDS011;7960;50.908;4.204;2023-06-26T04:53:19;12.57;;;4.57;;
15716;SDS011;7960;50.908;4.204;2023-06-26T04:55:46;11.20;;;4.20;;
15716;SDS011;7960;50.908;4.204;2023-06-26T04:58:13;13.50;;;4.87;;
15716;SDS011;7960;50.908;4.204;2023-06-26T05:00:40;10.70;;;4.40;;
15716;SDS011;7960;50.908;4.204;2023-06-26T05:03:08;13.37;;;4.97;;
15716;SDS011;7960;50.908;4.204;2023-06-26T05:05:35;10.80;;;4.93;;
15716;SDS011;7960;50.908;4.204;2023-06-26T05:08:14;14.80;;;4.90;;
15716;SDS011;7960;50.908;4.204;2023-06-26T05:10:41;12.80;;;4.70;;
15716;SDS011;7960;50.908;4.204;2023-06-26T05:13:08;9.87;;;4.77;;
15716;SDS011;7960;50.908;4.204;2023-06-26T05:15:35;11.97;;;4.67;;
15716;SDS011;7960;50.908;4.204;2023-06-26T05:18:02;11.93;;;4.37;;
15716;SDS011;7960;50.908;4.204;2023-06-26T05:20:30;12.17;;;4.13;;
15716;SDS011;7960;50.908;4.204;2023-06-26T05:22:58;12.23;;;4.57;;
15716;SDS011;7960;50.908;4.204;2023-06-26T05:25:29;13.93;;;4.43;;
15716;SDS011;7960;50.908;4.204;2023-06-26T05:27:58;10.80;;;4.00;;
15716;SDS011;7960;50.908;4.204;2023-06-26T05:30:25;11.37;;;3.67;;
15716;SDS011;7960;50.908;4.204;2023-06-26T05:32:53;10.83;;;4.00;;
15716;SDS011;7960;50.908;4.204;2023-06-26T05:35:21;9.43;;;3.60;;
15716;SDS011;7960;50.908;4.204;2023-06-26T05:37:49;13.83;;;4.10;;
15716;SDS011;7960;50.908;4.204;2023-06-26T05:40:17;10.20;;;4.00;;
15716;SDS011;7960;50.908;4.204;2023-06-26T05:42:46;9.13;;;3.73;;
15716;SDS011;7960;50.908;4.204;2023-06-26T05:45:14;9.40;;;3.60;;
15716;SDS011;7960;50.908;4.204;2023-06-26T05:47:41;9.37;;;4.20;;
15716;SDS011;7960;50.908;4.204;2023-06-26T05:50:08;7.97;;;3.80;;
15716;SDS011;7960;50.908;4.204;2023-06-26T05:52:36;7.77;;;3.40;;
15716;SDS011;7960;50.908;4.204;2023-06-26T05:55:05;8.03;;;3.07;;
15716;SDS011;7960;50.908;4.204;2023-06-26T05:57:32;10.03;;;3.77;;
15716;SDS011;7960;50.908;4.204;2023-06-26T06:00:03;11.63;;;3.37;;
15716;SDS011;7960;50.908;4.204;2023-06-26T06:02:35;11.60;;;2.80;;
15716;SDS011;7960;50.908;4.204;2023-06-26T06:05:02;15.57;;;6.27;;
15716;SDS011;7960;50.908;4.204;2023-06-26T06:07:30;9.47;;;3.73;;
15716;SDS011;7960;50.908;4.204;2023-06-26T06:09:57;7.37;;;3.10;;
15716;SDS011;7960;50.908;4.204;2023-06-26T06:12:24;5.93;;;3.17;;
15716;SDS011;7960;50.908;4.204;2023-06-26T06:14:51;7.60;;;3.23;;
15716;SDS011;7960;50.908;4.204;2023-06-26T06:17:19;10.73;;;3.23;;
15716;SDS011;7960;50.908;4.204;2023-06-26T06:19:46;7.13;;;3.10;;
15716;SDS011;7960;50.908;4.204;2023-06-26T06:22:13;8.93;;;2.97;;
15716;SDS011;7960;50.908;4.204;2023-06-26T06:24:41;5.07;;;2.67;;
15716;SDS011;7960;50.908;4.204;2023-06-26T06:27:10;13.97;;;3.03;;
15716;SDS011;7960;50.908;4.204;2023-06-26T06:29:38;7.40;;;2.83;;
15716;SDS011;7960;50.908;4.204;2023-06-26T06:32:05;4.47;;;2.23;;
15716;SDS011;7960;50.908;4.204;2023-06-26T06:34:34;4.50;;;2.43;;
15716;SDS011;7960;50.908;4.204;2023-06-26T06:37:01;4.73;;;3.00;;
15716;SDS011;7960;50.908;4.204;2023-06-26T06:39:28;7.63;;;2.80;;
15716;SDS011;7960;50.908;4.204;2023-06-26T06:41:55;5.33;;;2.60;;
15716;SDS011;7960;50.908;4.204;2023-06-26T06:44:22;5.00;;;2.43;;
15716;SDS011;7960;50.908;4.204;2023-06-26T06:46:49;7.73;;;3.17;;
15716;SDS011;7960;50.908;4.204;2023-06-26T06:49:16;7.93;;;2.90;;
15716;SDS011;7960;50.908;4.204;2023-06-26T06:51:44;5.27;;;2.53;;
15716;SDS011;7960;50.908;4.204;2023-06-26T06:54:11;6.50;;;2.80;;
15716;SDS011;7960;50.908;4.204;2023-06-26T06:56:38;9.63;;;2.87;;
15716;SDS011;7960;50.908;4.204;2023-06-26T06:59:05;7.17;;;3.07;;
15716;SDS011;7960;50.908;4.204;2023-06-26T07:01:32;8.20;;;3.07;;
15716;SDS011;7960;50.908;4.204;2023-06-26T07:03:59;9.07;;;2.70;;
15716;SDS011;7960;50.908;4.204;2023-06-26T07:06:26;7.23;;;2.60;;
15716;SDS011;7960;50.908;4.204;2023-06-26T07:08:54;9.17;;;2.90;;
15716;SDS011;7960;50.908;4.204;2023-06-26T07:11:21;5.10;;;2.60;;
15716;SDS011;7960;50.908;4.204;2023-06-26T07:13:47;5.50;;;2.60;;
15716;SDS011;7960;50.908;4.204;2023-06-26T07:16:14;8.43;;;2.60;;
15716;SDS011;7960;50.908;4.204;2023-06-26T07:18:41;11.13;;;3.03;;
15716;SDS011;7960;50.908;4.204;2023-06-26T07:21:08;5.97;;;2.63;;
15716;SDS011;7960;50.908;4.204;2023-06-26T07:23:35;8.90;;;3.10;;
15716;SDS011;7960;50.908;4.204;2023-06-26T07:26:03;6.83;;;2.40;;
15716;SDS011;7960;50.908;4.204;2023-06-26T07:28:30;5.37;;;2.40;;
15716;SDS011;7960;50.908;4.204;2023-06-26T07:30:57;7.27;;;2.60;;
15716;SDS011;7960;50.908;4.204;2023-06-26T07:33:24;12.03;;;2.80;;
15716;SDS011;7960;50.908;4.204;2023-06-26T07:35:51;6.13;;;2.80;;
15716;SDS011;7960;50.908;4.204;2023-06-26T07:38:18;5.23;;;2.37;;
15716;SDS011;7960;50.908;4.204;2023-06-26T07:40:45;8.27;;;2.60;;
15716;SDS011;7960;50.908;4.204;2023-06-26T07:43:14;6.63;;;2.67;;
15716;SDS011;7960;50.908;4.204;2023-06-26T07:45:41;6.80;;;2.57;;
15716;SDS011;7960;50.908;4.204;2023-06-26T07:48:08;6.73;;;2.47;;
15716;SDS011;7960;50.908;4.204;2023-06-26T07:50:35;3.87;;;2.50;;
15716;SDS011;7960;50.908;4.204;2023-06-26T07:53:01;8.43;;;3.23;;
15716;SDS011;7960;50.908;4.204;2023-06-26T07:55:30;5.10;;;2.40;;
15716;SDS011;7960;50.908;4.204;2023-06-26T07:57:57;6.00;;;2.80;;
15716;SDS011;7960;50.908;4.204;2023-06-26T08:00:25;5.07;;;2.43;;
15716;SDS011;7960;50.908;4.204;2023-06-26T08:02:52;6.97;;;2.93;;
15716;SDS011;7960;50.908;4.204;2023-06-26T08:05:19;6.03;;;2.33;;
15716;SDS011;7960;50.908;4.204;2023-06-26T08:07:46;8.23;;;2.47;;
15716;SDS011;7960;50.908;4.204;2023-06-26T08:10:13;3.80;;;2.30;;
15716;SDS011;7960;50.908;4.204;2023-06-26T08:12:40;5.23;;;2.40;;
15716;SDS011;7960;50.908;4.204;2023-06-26T08:15:08;4.40;;;2.40;;
15716;SDS011;7960;50.908;4.204;2023-06-26T08:17:36;5.80;;;2.70;;
15716;SDS011;7960;50.908;4.204;2023-06-26T08:20:04;11.37;;;2.90;;
15716;SDS011;7960;50.908;4.204;2023-06-26T08:22:33;7.47;;;2.43;;
15716;SDS011;7960;50.908;4.204;2023-06-26T08:25:00;5.87;;;2.60;;
15716;SDS011;7960;50.908;4.204;2023-06-26T08:27:28;4.50;;;2.10;;
15716;SDS011;7960;50.908;4.204;2023-06-26T08:29:54;6.20;;;2.40;;
15716;SDS011;7960;50.908;4.204;2023-06-26T08:32:21;4.90;;;2.30;;
15716;SDS011;7960;50.908;4.204;2023-06-26T08:34:49;5.13;;;2.60;;
15716;SDS011;7960;50.908;4.204;2023-06-26T08:37:17;8.00;;;2.87;;
15716;SDS011;7960;50.908;4.204;2023-06-26T08:39:44;6.07;;;2.27;;
15716;SDS011;7960;50.908;4.204;2023-06-26T08:42:10;6.13;;;2.70;;
15716;SDS011;7960;50.908;4.204;2023-06-26T08:44:37;4.97;;;2.60;;
15716;SDS011;7960;50.908;4.204;2023-06-26T08:47:04;7.23;;;2.30;;
15716;SDS011;7960;50.908;4.204;2023-06-26T08:49:34;5.97;;;2.20;;
15716;SDS011;7960;50.908;4.204;2023-06-26T08:52:22;7.10;;;2.30;;
15716;SDS011;7960;50.908;4.204;2023-06-26T08:54:52;6.03;;;3.10;;
15716;SDS011;7960;50.908;4.204;2023-06-26T08:57:22;4.73;;;2.13;;
15716;SDS011;7960;50.908;4.204;2023-06-26T08:59:50;8.80;;;2.50;;
15716;SDS011;7960;50.908;4.204;2023-06-26T09:02:17;4.57;;;2.57;;
15716;SDS011;7960;50.908;4.204;2023-06-26T09:04:46;6.30;;;2.83;;
15716;SDS011;7960;50.908;4.204;2023-06-26T09:07:15;5.83;;;2.60;;
15716;SDS011;7960;50.908;4.204;2023-06-26T09:09:42;7.07;;;2.13;;
15716;SDS011;7960;50.908;4.204;2023-06-26T09:12:09;4.70;;;2.40;;
15716;SDS011;7960;50.908;4.204;2023-06-26T09:14:38;4.13;;;2.63;;
15716;SDS011;7960;50.908;4.204;2023-06-26T09:17:05;6.37;;;3.03;;
15716;SDS011;7960;50.908;4.204;2023-06-26T09:19:32;4.73;;;2.43;;
15716;SDS011;7960;50.908;4.204;2023-06-26T09:22:03;5.77;;;2.40;;
15716;SDS011;7960;50.908;4.204;2023-06-26T09:24:31;4.50;;;2.43;;
15716;SDS011;7960;50.908;4.204;2023-06-26T09:26:59;6.70;;;2.27;;
15716;SDS011;7960;50.908;4.204;2023-06-26T09:29:27;4.67;;;2.20;;
15716;SDS011;7960;50.908;4.204;2023-06-26T09:31:56;6.63;;;2.10;;
15716;SDS011;7960;50.908;4.204;2023-06-26T09:34:29;2.57;;;2.03;;
15716;SDS011;7960;50.908;4.204;2023-06-26T09:36:57;6.27;;;2.30;;
15716;SDS011;7960;50.908;4.204;2023-06-26T09:39:29;6.97;;;2.10;;
15716;SDS011;7960;50.908;4.204;2023-06-26T09:41:58;4.50;;;2.83;;
15716;SDS011;7960;50.908;4.204;2023-06-26T09:44:26;6.00;;;2.23;;
15716;SDS011;7960;50.908;4.204;2023-06-26T09:46:56;4.03;;;2.20;;
15716;SDS011;7960;50.908;4.204;2023-06-26T09:49:23;6.90;;;2.57;;
15716;SDS011;7960;50.908;4.204;2023-06-26T09:51:51;4.53;;;2.20;;
15716;SDS011;7960;50.908;4.204;2023-06-26T09:54:19;6.13;;;2.23;;
15716;SDS011;7960;50.908;4.204;2023-06-26T09:56:51;5.83;;;2.30;;
15716;SDS011;7960;50.908;4.204;2023-06-26T09:59:18;6.77;;;2.43;;
15716;SDS011;7960;50.908;4.204;2023-06-26T10:01:45;4.93;;;2.10;;
15716;SDS011;7960;50.908;4.204;2023-06-26T10:04:13;2.77;;;2.20;;
15716;SDS011;7960;50.908;4.204;2023-06-26T10:06:41;6.43;;;2.30;;
15716;SDS011;7960;50.908;4.204;2023-06-26T10:09:12;5.07;;;2.40;;
15716;SDS011;7960;50.908;4.204;2023-06-26T10:11:45;5.53;;;2.20;;
15716;SDS011;7960;50.908;4.204;2023-06-26T10:14:16;4.83;;;2.60;;
15716;SDS011;7960;50.908;4.204;2023-06-26T10:16:46;3.77;;;2.20;;
15716;SDS011;7960;50.908;4.204;2023-06-26T10:19:16;4.50;;;2.37;;
15716;SDS011;7960;50.908;4.204;2023-06-26T10:21:49;4.70;;;2.43;;
15716;SDS011;7960;50.908;4.204;2023-06-26T10:24:17;5.13;;;2.27;;
15716;SDS011;7960;50.908;4.204;2023-06-26T10:26:45;6.23;;;2.17;;
15716;SDS011;7960;50.908;4.204;2023-06-26T10:29:14;4.80;;;2.50;;
15716;SDS011;7960;50.908;4.204;2023-06-26T10:31:49;5.43;;;2.50;;
15716;SDS011;7960;50.908;4.204;2023-06-26T10:34:18;3.17;;;2.33;;
15716;SDS011;7960;50.908;4.204;2023-06-26T10:36:46;4.73;;;2.40;;
15716;SDS011;7960;50.908;4.204;2023-06-26T10:39:16;4.57;;;2.33;;
15716;SDS011;7960;50.908;4.204;2023-06-26T10:41:46;3.57;;;2.17;;
15716;SDS011;7960;50.908;4.204;2023-06-26T10:44:15;4.87;;;2.80;;
15716;SDS011;7960;50.908;4.204;2023-06-26T10:46:50;6.50;;;2.63;;
15716;SDS011;7960;50.908;4.204;2023-06-26T10:49:18;7.00;;;2.60;;
15716;SDS011;7960;50.908;4.204;2023-06-26T10:51:46;2.57;;;2.30;;
15716;SDS011;7960;50.908;4.204;2023-06-26T10:54:14;3.57;;;2.70;;
15716;SDS011;7960;50.908;4.204;2023-06-26T10:56:43;3.33;;;2.30;;
15716;SDS011;7960;50.908;4.204;2023-06-26T10:59:11;4.37;;;2.73;;
15716;SDS011;7960;50.908;4.204;2023-06-26T11:01:43;8.30;;;3.00;;
15716;SDS011;7960;50.908;4.204;2023-06-26T11:04:11;5.47;;;3.00;;
15716;SDS011;7960;50.908;4.204;2023-06-26T11:06:40;3.27;;;2.40;;
15716;SDS011;7960;50.908;4.204;2023-06-26T11:09:10;5.63;;;2.90;;
15716;SDS011;7960;50.908;4.204;2023-06-26T11:11:56;4.30;;;2.90;;
15716;SDS011;7960;50.908;4.204;2023-06-26T11:14:33;5.37;;;3.10;;
15716;SDS011;7960;50.908;4.204;2023-06-26T11:17:05;4.97;;;2.60;;
15716;SDS011;7960;50.908;4.204;2023-06-26T11:19:32;7.37;;;3.10;;
15716;SDS011;7960;50.908;4.204;2023-06-26T11:22:01;5.47;;;2.80;;
15716;SDS011;7960;50.908;4.204;2023-06-26T11:24:31;3.43;;;2.70;;
15716;SDS011;7960;50.908;4.204;2023-06-26T11:27:02;4.97;;;3.00;;
15716;SDS011;7960;50.908;4.204;2023-06-26T11:29:31;3.97;;;3.20;;
15716;SDS011;7960;50.908;4.204;2023-06-26T11:31:59;5.47;;;2.63;;
15716;SDS011;7960;50.908;4.204;2023-06-26T11:34:30;5.27;;;2.80;;
15716;SDS011;7960;50.908;4.204;2023-06-26T11:36:58;5.17;;;3.10;;
15716;SDS011;7960;50.908;4.204;2023-06-26T11:39:27;4.30;;;2.97;;
15716;SDS011;7960;50.908;4.204;2023-06-26T11:41:54;5.40;;;3.00;;
15716;SDS011;7960;50.908;4.204;2023-06-26T11:44:21;7.43;;;2.93;;
15716;SDS011;7960;50.908;4.204;2023-06-26T11:46:51;5.90;;;3.10;;
15716;SDS011;7960;50.908;4.204;2023-06-26T11:49:20;5.00;;;2.90;;
15716;SDS011;7960;50.908;4.204;2023-06-26T11:51:51;5.37;;;2.70;;
15716;SDS011;7960;50.908;4.204;2023-06-26T11:54:24;3.80;;;2.57;;
15716;SDS011;7960;50.908;4.204;2023-06-26T11:56:52;4.50;;;2.87;;
15716;SDS011;7960;50.908;4.204;2023-06-26T11:59:23;4.30;;;2.70;;
15716;SDS011;7960;50.908;4.204;2023-06-26T12:01:51;9.20;;;2.90;;
15716;SDS011;7960;50.908;4.204;2023-06-26T12:04:18;5.00;;;2.60;;
15716;SDS011;7960;50.908;4.204;2023-06-26T12:06:47;5.67;;;2.70;;
15716;SDS011;7960;50.908;4.204;2023-06-26T12:09:19;4.33;;;2.77;;
15716;SDS011;7960;50.908;4.204;2023-06-26T12:11:47;5.93;;;3.00;;
15716;SDS011;7960;50.908;4.204;2023-06-26T12:14:17;4.07;;;2.57;;
15716;SDS011;7960;50.908;4.204;2023-06-26T12:16:46;7.03;;;2.73;;
15716;SDS011;7960;50.908;4.204;2023-06-26T12:19:14;6.73;;;3.20;;
15716;SDS011;7960;50.908;4.204;2023-06-26T12:21:45;6.13;;;2.50;;
15716;SDS011;7960;50.908;4.204;2023-06-26T12:24:19;4.17;;;2.60;;
15716;SDS011;7960;50.908;4.204;2023-06-26T12:26:48;4.67;;;2.67;;
15716;SDS011;7960;50.908;4.204;2023-06-26T12:29:24;3.17;;;2.30;;
15716;SDS011;7960;50.908;4.204;2023-06-26T12:31:55;5.53;;;2.53;;
15716;SDS011;7960;50.908;4.204;2023-06-26T12:34:26;4.30;;;2.27;;
15716;SDS011;7960;50.908;4.204;2023-06-26T12:36:58;5.47;;;2.93;;
15716;SDS011;7960;50.908;4.204;2023-06-26T12:39:28;6.37;;;2.30;;
15716;SDS011;7960;50.908;4.204;2023-06-26T12:41:57;6.00;;;2.57;;
15716;SDS011;7960;50.908;4.204;2023-06-26T12:44:26;5.60;;;3.03;;
15716;SDS011;7960;50.908;4.204;2023-06-26T12:46:56;4.70;;;2.67;;
15716;SDS011;7960;50.908;4.204;2023-06-26T12:49:30;9.73;;;3.10;;
15716;SDS011;7960;50.908;4.204;2023-06-26T12:51:59;6.13;;;2.33;;
15716;SDS011;7960;50.908;4.204;2023-06-26T12:54:31;5.13;;;2.83;;
15716;SDS011;7960;50.908;4.204;2023-06-26T12:56:59;6.17;;;2.60;;
15716;SDS011;7960;50.908;4.204;2023-06-26T12:59:26;4.60;;;2.20;;
15716;SDS011;7960;50.908;4.204;2023-06-26T13:01:53;7.47;;;2.70;;
15716;SDS011;7960;50.908;4.204;2023-06-26T13:04:20;5.63;;;2.30;;
15716;SDS011;7960;50.908;4.204;2023-06-26T13:06:47;4.67;;;2.23;;
15716;SDS011;7960;50.908;4.204;2023-06-26T13:09:17;5.70;;;2.70;;
15716;SDS011;7960;50.908;4.204;2023-06-26T13:11:47;3.03;;;2.10;;
15716;SDS011;7960;50.908;4.204;2023-06-26T13:14:13;4.50;;;2.57;;
15716;SDS011;7960;50.908;4.204;2023-06-26T13:16:41;5.93;;;2.53;;
15716;SDS011;7960;50.908;4.204;2023-06-26T13:19:08;4.07;;;2.60;;
15716;SDS011;7960;50.908;4.204;2023-06-26T13:21:35;3.57;;;2.37;;
15716;SDS011;7960;50.908;4.204;2023-06-26T13:24:03;3.53;;;2.10;;
15716;SDS011;7960;50.908;4.204;2023-06-26T13:26:30;4.63;;;2.00;;
15716;SDS011;7960;50.908;4.204;2023-06-26T13:28:59;2.60;;;2.00;;
15716;SDS011;7960;50.908;4.204;2023-06-26T13:31:26;3.10;;;2.20;;
15716;SDS011;7960;50.908;4.204;2023-06-26T13:33:53;3.90;;;2.30;;
15716;SDS011;7960;50.908;4.204;2023-06-26T13:36:24;6.33;;;2.20;;
15716;SDS011;7960;50.908;4.204;2023-06-26T13:38:51;6.00;;;2.87;;
15716;SDS011;7960;50.908;4.204;2023-06-26T13:41:20;5.13;;;2.40;;
15716;SDS011;7960;50.908;4.204;2023-06-26T13:43:48;6.23;;;2.40;;
15716;SDS011;7960;50.908;4.204;2023-06-26T13:46:18;3.73;;;2.63;;
15716;SDS011;7960;50.908;4.204;2023-06-26T13:48:45;4.30;;;2.30;;
15716;SDS011;7960;50.908;4.204;2023-06-26T13:51:12;7.00;;;2.30;;
15716;SDS011;7960;50.908;4.204;2023-06-26T13:53:39;4.97;;;2.63;;
15716;SDS011;7960;50.908;4.204;2023-06-26T13:56:06;6.33;;;2.57;;
15716;SDS011;7960;50.908;4.204;2023-06-26T13:58:34;3.67;;;2.33;;
15716;SDS011;7960;50.908;4.204;2023-06-26T14:01:04;8.43;;;2.30;;
15716;SDS011;7960;50.908;4.204;2023-06-26T14:03:33;7.10;;;2.53;;
15716;SDS011;7960;50.908;4.204;2023-06-26T14:05:59;5.03;;;2.27;;
15716;SDS011;7960;50.908;4.204;2023-06-26T14:08:26;3.70;;;2.40;;
15716;SDS011;7960;50.908;4.204;2023-06-26T14:10:53;2.80;;;2.20;;
15716;SDS011;7960;50.908;4.204;2023-06-26T14:13:20;4.60;;;2.40;;
15716;SDS011;7960;50.908;4.204;2023-06-26T14:15:47;6.43;;;2.28;;
15716;SDS011;7960;50.908;4.204;2023-06-26T14:18:17;3.77;;;2.40;;
15716;SDS011;7960;50.908;4.204;2023-06-26T14:20:45;3.77;;;2.40;;
15716;SDS011;7960;50.908;4.204;2023-06-26T14:23:13;4.50;;;2.23;;
15716;SDS011;7960;50.908;4.204;2023-06-26T14:25:40;4.33;;;2.10;;
15716;SDS011;7960;50.908;4.204;2023-06-26T14:28:06;4.93;;;2.45;;
15716;SDS011;7960;50.908;4.204;2023-06-26T14:30:33;4.33;;;2.40;;
15716;SDS011;7960;50.908;4.204;2023-06-26T14:33:00;3.70;;;2.00;;
15716;SDS011;7960;50.908;4.204;2023-06-26T14:35:27;5.60;;;2.30;;
15716;SDS011;7960;50.908;4.204;2023-06-26T14:37:55;7.73;;;2.60;;
15716;SDS011;7960;50.908;4.204;2023-06-26T14:40:22;5.10;;;2.37;;
15716;SDS011;7960;50.908;4.204;2023-06-26T14:42:49;4.23;;;2.13;;
15716;SDS011;7960;50.908;4.204;2023-06-26T14:45:18;2.60;;;1.90;;
15716;SDS011;7960;50.908;4.204;2023-06-26T14:47:45;4.13;;;2.20;;
15716;SDS011;7960;50.908;4.204;2023-06-26T14:50:12;7.17;;;2.63;;
15716;SDS011;7960;50.908;4.204;2023-06-26T14:52:39;6.37;;;2.37;;
15716;SDS011;7960;50.908;4.204;2023-06-26T14:55:07;4.03;;;2.40;;
15716;SDS011;7960;50.908;4.204;2023-06-26T14:57:35;4.00;;;2.30;;
15716;SDS011;7960;50.908;4.204;2023-06-26T15:00:06;3.70;;;2.30;;
15716;SDS011;7960;50.908;4.204;2023-06-26T15:02:33;5.67;;;2.67;;
15716;SDS011;7960;50.908;4.204;2023-06-26T15:05:02;6.97;;;2.43;;